sensor_id;sensor_type;location;lat;lon;timestamp;P1;durP1;ratioP1;P2;durP2;ratioP2
13588;SDS011;6865;52.552;13.434;2022-12-19T00:03:34;18.10;;;9.73;;
13588;SDS011;6865;52.552;13.434;2022-12-19T00:06:02;21.30;;;10.83;;
13588;SDS011;6865;52.552;13.434;2022-12-19T00:08:32;19.07;;;10.80;;
13588;SDS011;6865;52.552;13.434;2022-12-19T00:10:59;18.63;;;10.80;;
13588;SDS011;6865;52.552;13.434;2022-12-19T00:13:28;20.07;;;10.80;;
13588;SDS011;6865;52.552;13.434;2022-12-19T00:16:09;18.80;;;10.43;;
13588;SDS011;6865;52.552;13.434;2022-12-19T00:18:44;20.23;;;10.70;;
13588;SDS011;6865;52.552;13.434;2022-12-19T00:21:13;19.50;;;9.53;;
13588;SDS011;6865;52.552;13.434;2022-12-19T00:23:44;19.53;;;10.20;;
13588;SDS011;6865;52.552;13.434;2022-12-19T00:28:47;16.53;;;9.67;;
13588;SDS011;6865;52.552;13.434;2022-12-19T00:31:16;18.07;;;9.53;;
13588;SDS011;6865;52.552;13.434;2022-12-19T00:33:43;16.97;;;10.30;;
13588;SDS011;6865;52.552;13.434;2022-12-19T00:36:29;18.73;;;9.77;;
13588;SDS011;6865;52.552;13.434;2022-12-19T00:38:58;20.37;;;9.73;;
13588;SDS011;6865;52.552;13.434;2022-12-19T00:41:34;16.93;;;9.40;;
13588;SDS011;6865;52.552;13.434;2022-12-19T00:44:02;18.93;;;10.10;;
13588;SDS011;6865;52.552;13.434;2022-12-19T00:46:32;17.57;;;9.67;;
13588;SDS011;6865;52.552;13.434;2022-12-19T00:49:00;17.97;;;9.37;;
13588;SDS011;6865;52.552;13.434;2022-12-19T00:51:28;16.33;;;9.40;;
13588;SDS011;6865;52.552;13.434;2022-12-19T00:53:56;16.87;;;9.07;;
13588;SDS011;6865;52.552;13.434;2022-12-19T00:56:25;15.87;;;10.00;;
13588;SDS011;6865;52.552;13.434;2022-12-19T00:58:53;18.10;;;9.00;;
13588;SDS011;6865;52.552;13.434;2022-12-19T01:01:25;16.87;;;9.10;;
13588;SDS011;6865;52.552;13.434;2022-12-19T01:03:56;19.00;;;9.70;;
13588;SDS011;6865;52.552;13.434;2022-12-19T01:06:43;15.73;;;9.20;;
13588;SDS011;6865;52.552;13.434;2022-12-19T01:09:10;19.47;;;10.37;;
13588;SDS011;6865;52.552;13.434;2022-12-19T01:11:37;18.00;;;9.70;;
13588;SDS011;6865;52.552;13.434;2022-12-19T01:14:23;18.07;;;9.87;;
13588;SDS011;6865;52.552;13.434;2022-12-19T01:16:50;17.30;;;9.23;;
13588;SDS011;6865;52.552;13.434;2022-12-19T01:19:17;19.37;;;9.80;;
13588;SDS011;6865;52.552;13.434;2022-12-19T01:21:44;17.10;;;9.40;;
13588;SDS011;6865;52.552;13.434;2022-12-19T01:24:11;17.33;;;9.80;;
13588;SDS011;6865;52.552;13.434;2022-12-19T01:26:43;17.27;;;9.50;;
13588;SDS011;6865;52.552;13.434;2022-12-19T01:29:10;21.23;;;9.97;;
13588;SDS011;6865;52.552;13.434;2022-12-19T01:31:36;17.23;;;9.57;;
13588;SDS011;6865;52.552;13.434;2022-12-19T01:34:03;15.60;;;9.20;;
13588;SDS011;6865;52.552;13.434;2022-12-19T01:36:30;15.67;;;8.80;;
13588;SDS011;6865;52.552;13.434;2022-12-19T01:38:57;18.93;;;9.57;;
13588;SDS011;6865;52.552;13.434;2022-12-19T01:41:23;18.33;;;9.90;;
13588;SDS011;6865;52.552;13.434;2022-12-19T01:43:57;16.53;;;9.47;;
13588;SDS011;6865;52.552;13.434;2022-12-19T01:46:48;17.53;;;9.53;;
13588;SDS011;6865;52.552;13.434;2022-12-19T01:49:16;16.53;;;9.27;;
13588;SDS011;6865;52.552;13.434;2022-12-19T01:51:50;17.97;;;9.33;;
13588;SDS011;6865;52.552;13.434;2022-12-19T01:54:20;17.03;;;9.43;;
13588;SDS011;6865;52.552;13.434;2022-12-19T01:56:52;19.30;;;10.13;;
13588;SDS011;6865;52.552;13.434;2022-12-19T01:59:28;17.20;;;9.43;;
13588;SDS011;6865;52.552;13.434;2022-12-19T02:02:09;19.70;;;10.03;;
13588;SDS011;6865;52.552;13.434;2022-12-19T02:04:44;18.33;;;9.80;;
13588;SDS011;6865;52.552;13.434;2022-12-19T02:07:11;16.63;;;8.97;;
13588;SDS011;6865;52.552;13.434;2022-12-19T02:09:42;16.27;;;9.77;;
13588;SDS011;6865;52.552;13.434;2022-12-19T02:12:10;17.10;;;9.10;;
13588;SDS011;6865;52.552;13.434;2022-12-19T02:14:37;18.00;;;9.90;;
13588;SDS011;6865;52.552;13.434;2022-12-19T02:17:20;19.73;;;10.10;;
13588;SDS011;6865;52.552;13.434;2022-12-19T02:23:03;17.37;;;9.83;;
13588;SDS011;6865;52.552;13.434;2022-12-19T02:25:57;16.00;;;9.50;;
13588;SDS011;6865;52.552;13.434;2022-12-19T02:28:50;17.47;;;9.83;;
13588;SDS011;6865;52.552;13.434;2022-12-19T02:31:33;16.40;;;9.07;;
13588;SDS011;6865;52.552;13.434;2022-12-19T02:34:12;18.07;;;10.23;;
13588;SDS011;6865;52.552;13.434;2022-12-19T02:36:53;21.00;;;10.20;;
13588;SDS011;6865;52.552;13.434;2022-12-19T02:42:24;18.53;;;10.00;;
13588;SDS011;6865;52.552;13.434;2022-12-19T02:45:00;17.90;;;10.13;;
13588;SDS011;6865;52.552;13.434;2022-12-19T02:47:30;16.00;;;9.83;;
13588;SDS011;6865;52.552;13.434;2022-12-19T02:49:58;20.77;;;10.13;;
13588;SDS011;6865;52.552;13.434;2022-12-19T02:54:53;20.67;;;11.03;;
13588;SDS011;6865;52.552;13.434;2022-12-19T02:57:27;18.50;;;10.47;;
13588;SDS011;6865;52.552;13.434;2022-12-19T03:00:10;21.13;;;10.80;;
13588;SDS011;6865;52.552;13.434;2022-12-19T03:10:37;18.37;;;10.20;;
13588;SDS011;6865;52.552;13.434;2022-12-19T03:13:22;18.67;;;10.77;;
13588;SDS011;6865;52.552;13.434;2022-12-19T03:15:56;21.10;;;11.57;;
13588;SDS011;6865;52.552;13.434;2022-12-19T03:18:24;21.47;;;10.77;;
13588;SDS011;6865;52.552;13.434;2022-12-19T03:23:40;18.60;;;11.17;;
13588;SDS011;6865;52.552;13.434;2022-12-19T03:26:11;20.63;;;11.43;;
13588;SDS011;6865;52.552;13.434;2022-12-19T03:28:47;20.03;;;10.67;;
13588;SDS011;6865;52.552;13.434;2022-12-19T03:31:30;19.83;;;10.93;;
13588;SDS011;6865;52.552;13.434;2022-12-19T03:34:00;22.17;;;11.40;;
13588;SDS011;6865;52.552;13.434;2022-12-19T03:36:31;20.90;;;11.20;;
13588;SDS011;6865;52.552;13.434;2022-12-19T03:39:03;20.57;;;11.13;;
13588;SDS011;6865;52.552;13.434;2022-12-19T03:41:33;21.47;;;12.37;;
13588;SDS011;6865;52.552;13.434;2022-12-19T03:44:20;20.17;;;11.07;;
13588;SDS011;6865;52.552;13.434;2022-12-19T03:46:53;23.17;;;11.30;;
13588;SDS011;6865;52.552;13.434;2022-12-19T03:49:29;20.87;;;11.70;;
13588;SDS011;6865;52.552;13.434;2022-12-19T03:51:58;19.53;;;10.63;;
13588;SDS011;6865;52.552;13.434;2022-12-19T03:54:37;18.70;;;10.97;;
13588;SDS011;6865;52.552;13.434;2022-12-19T03:57:49;20.87;;;11.37;;
13588;SDS011;6865;52.552;13.434;2022-12-19T04:00:03;20.03;;;11.13;;
13588;SDS011;6865;52.552;13.434;2022-12-19T04:02:36;19.50;;;10.70;;
13588;SDS011;6865;52.552;13.434;2022-12-19T04:05:06;20.93;;;11.50;;
13588;SDS011;6865;52.552;13.434;2022-12-19T04:07:35;21.77;;;11.73;;
13588;SDS011;6865;52.552;13.434;2022-12-19T04:10:04;20.00;;;11.50;;
13588;SDS011;6865;52.552;13.434;2022-12-19T04:12:33;20.37;;;10.80;;
13588;SDS011;6865;52.552;13.434;2022-12-19T04:15:04;21.83;;;11.70;;
13588;SDS011;6865;52.552;13.434;2022-12-19T04:17:38;22.00;;;11.07;;
13588;SDS011;6865;52.552;13.434;2022-12-19T04:20:13;21.23;;;11.40;;
13588;SDS011;6865;52.552;13.434;2022-12-19T04:25:38;20.67;;;11.67;;
13588;SDS011;6865;52.552;13.434;2022-12-19T04:28:17;22.47;;;12.43;;
13588;SDS011;6865;52.552;13.434;2022-12-19T04:30:49;23.37;;;11.93;;
13588;SDS011;6865;52.552;13.434;2022-12-19T04:33:16;19.70;;;10.37;;
13588;SDS011;6865;52.552;13.434;2022-12-19T04:35:43;24.50;;;11.73;;
13588;SDS011;6865;52.552;13.434;2022-12-19T04:38:10;23.30;;;11.77;;
13588;SDS011;6865;52.552;13.434;2022-12-19T04:40:36;21.27;;;11.17;;
13588;SDS011;6865;52.552;13.434;2022-12-19T04:43:07;21.80;;;11.93;;
13588;SDS011;6865;52.552;13.434;2022-12-19T04:45:33;20.80;;;11.77;;
13588;SDS011;6865;52.552;13.434;2022-12-19T04:48:01;21.70;;;11.53;;
13588;SDS011;6865;52.552;13.434;2022-12-19T04:50:28;20.83;;;11.57;;
13588;SDS011;6865;52.552;13.434;2022-12-19T04:52:54;21.37;;;11.27;;
13588;SDS011;6865;52.552;13.434;2022-12-19T04:55:22;21.43;;;11.50;;
13588;SDS011;6865;52.552;13.434;2022-12-19T04:57:49;20.93;;;11.90;;
13588;SDS011;6865;52.552;13.434;2022-12-19T05:00:15;21.87;;;11.50;;
13588;SDS011;6865;52.552;13.434;2022-12-19T05:02:42;22.40;;;12.17;;
13588;SDS011;6865;52.552;13.434;2022-12-19T05:05:09;22.53;;;12.53;;
13588;SDS011;6865;52.552;13.434;2022-12-19T05:07:36;20.63;;;12.23;;
13588;SDS011;6865;52.552;13.434;2022-12-19T05:10:03;21.83;;;12.17;;
13588;SDS011;6865;52.552;13.434;2022-12-19T05:12:30;22.20;;;11.77;;
13588;SDS011;6865;52.552;13.434;2022-12-19T05:14:57;22.40;;;11.93;;
13588;SDS011;6865;52.552;13.434;2022-12-19T05:17:23;18.97;;;11.43;;
13588;SDS011;6865;52.552;13.434;2022-12-19T05:19:50;21.57;;;11.53;;
13588;SDS011;6865;52.552;13.434;2022-12-19T05:22:16;20.70;;;11.03;;
13588;SDS011;6865;52.552;13.434;2022-12-19T05:24:43;23.03;;;11.33;;
13588;SDS011;6865;52.552;13.434;2022-12-19T05:27:10;23.60;;;12.67;;
13588;SDS011;6865;52.552;13.434;2022-12-19T05:29:36;21.00;;;11.93;;
13588;SDS011;6865;52.552;13.434;2022-12-19T05:32:03;21.00;;;11.80;;
13588;SDS011;6865;52.552;13.434;2022-12-19T05:34:30;19.40;;;11.20;;
13588;SDS011;6865;52.552;13.434;2022-12-19T05:36:56;19.30;;;11.70;;
13588;SDS011;6865;52.552;13.434;2022-12-19T05:39:25;19.93;;;11.57;;
13588;SDS011;6865;52.552;13.434;2022-12-19T05:41:51;19.60;;;11.73;;
13588;SDS011;6865;52.552;13.434;2022-12-19T05:44:18;19.07;;;11.30;;
13588;SDS011;6865;52.552;13.434;2022-12-19T05:46:45;22.93;;;12.40;;
13588;SDS011;6865;52.552;13.434;2022-12-19T05:49:12;20.13;;;11.47;;
13588;SDS011;6865;52.552;13.434;2022-12-19T05:51:41;22.13;;;12.20;;
13588;SDS011;6865;52.552;13.434;2022-12-19T05:54:08;20.93;;;11.47;;
13588;SDS011;6865;52.552;13.434;2022-12-19T05:56:34;22.10;;;11.60;;
13588;SDS011;6865;52.552;13.434;2022-12-19T05:59:01;21.30;;;11.57;;
13588;SDS011;6865;52.552;13.434;2022-12-19T06:01:28;19.13;;;11.70;;
13588;SDS011;6865;52.552;13.434;2022-12-19T06:03:55;19.57;;;11.27;;
13588;SDS011;6865;52.552;13.434;2022-12-19T06:06:25;22.10;;;11.57;;
13588;SDS011;6865;52.552;13.434;2022-12-19T06:08:56;23.37;;;11.93;;
13588;SDS011;6865;52.552;13.434;2022-12-19T06:11:24;19.13;;;11.93;;
13588;SDS011;6865;52.552;13.434;2022-12-19T06:13:51;18.93;;;10.93;;
13588;SDS011;6865;52.552;13.434;2022-12-19T06:16:19;22.23;;;12.13;;
13588;SDS011;6865;52.552;13.434;2022-12-19T06:18:47;22.80;;;11.23;;
13588;SDS011;6865;52.552;13.434;2022-12-19T06:21:15;24.43;;;12.33;;
13588;SDS011;6865;52.552;13.434;2022-12-19T06:23:43;20.27;;;11.07;;
13588;SDS011;6865;52.552;13.434;2022-12-19T06:26:11;19.90;;;11.57;;
13588;SDS011;6865;52.552;13.434;2022-12-19T06:28:44;21.87;;;11.80;;
13588;SDS011;6865;52.552;13.434;2022-12-19T06:31:15;23.50;;;11.77;;
13588;SDS011;6865;52.552;13.434;2022-12-19T06:33:42;20.47;;;12.17;;
13588;SDS011;6865;52.552;13.434;2022-12-19T06:36:13;20.93;;;11.50;;
13588;SDS011;6865;52.552;13.434;2022-12-19T06:38:43;20.07;;;11.53;;
13588;SDS011;6865;52.552;13.434;2022-12-19T06:41:10;22.33;;;11.20;;
13588;SDS011;6865;52.552;13.434;2022-12-19T06:43:58;20.33;;;10.43;;
13588;SDS011;6865;52.552;13.434;2022-12-19T06:46:26;23.57;;;11.10;;
13588;SDS011;6865;52.552;13.434;2022-12-19T06:48:53;22.00;;;11.63;;
13588;SDS011;6865;52.552;13.434;2022-12-19T06:51:20;19.33;;;11.03;;
13588;SDS011;6865;52.552;13.434;2022-12-19T06:53:47;20.47;;;11.03;;
13588;SDS011;6865;52.552;13.434;2022-12-19T06:56:14;20.23;;;11.67;;
13588;SDS011;6865;52.552;13.434;2022-12-19T06:58:42;21.33;;;11.03;;
13588;SDS011;6865;52.552;13.434;2022-12-19T07:04:07;20.93;;;11.43;;
13588;SDS011;6865;52.552;13.434;2022-12-19T07:06:39;20.00;;;11.57;;
13588;SDS011;6865;52.552;13.434;2022-12-19T07:09:12;21.07;;;12.07;;
13588;SDS011;6865;52.552;13.434;2022-12-19T07:11:39;21.70;;;11.60;;
13588;SDS011;6865;52.552;13.434;2022-12-19T07:14:05;19.67;;;11.00;;
13588;SDS011;6865;52.552;13.434;2022-12-19T07:16:35;20.97;;;11.13;;
13588;SDS011;6865;52.552;13.434;2022-12-19T07:19:02;22.27;;;10.43;;
13588;SDS011;6865;52.552;13.434;2022-12-19T07:21:29;20.87;;;11.57;;
13588;SDS011;6865;52.552;13.434;2022-12-19T07:23:56;19.33;;;10.97;;
13588;SDS011;6865;52.552;13.434;2022-12-19T07:26:24;19.70;;;10.57;;
13588;SDS011;6865;52.552;13.434;2022-12-19T07:28:52;19.63;;;10.80;;
13588;SDS011;6865;52.552;13.434;2022-12-19T07:31:19;20.60;;;11.38;;
13588;SDS011;6865;52.552;13.434;2022-12-19T07:33:45;18.70;;;10.77;;
13588;SDS011;6865;52.552;13.434;2022-12-19T07:36:12;20.73;;;11.17;;
13588;SDS011;6865;52.552;13.434;2022-12-19T07:38:38;20.00;;;12.23;;
13588;SDS011;6865;52.552;13.434;2022-12-19T07:41:05;18.70;;;11.50;;
13588;SDS011;6865;52.552;13.434;2022-12-19T07:43:31;21.73;;;11.47;;
13588;SDS011;6865;52.552;13.434;2022-12-19T07:45:58;19.17;;;11.23;;
13588;SDS011;6865;52.552;13.434;2022-12-19T07:48:25;22.67;;;11.37;;
13588;SDS011;6865;52.552;13.434;2022-12-19T07:50:53;19.87;;;10.63;;
13588;SDS011;6865;52.552;13.434;2022-12-19T07:53:20;20.80;;;11.67;;
13588;SDS011;6865;52.552;13.434;2022-12-19T07:55:50;21.17;;;11.10;;
13588;SDS011;6865;52.552;13.434;2022-12-19T07:58:17;19.93;;;10.53;;
13588;SDS011;6865;52.552;13.434;2022-12-19T08:00:44;22.50;;;10.97;;
13588;SDS011;6865;52.552;13.434;2022-12-19T08:03:11;20.50;;;11.47;;
13588;SDS011;6865;52.552;13.434;2022-12-19T08:05:37;17.43;;;10.20;;
13588;SDS011;6865;52.552;13.434;2022-12-19T08:08:04;18.20;;;10.70;;
13588;SDS011;6865;52.552;13.434;2022-12-19T08:10:31;21.03;;;10.93;;
13588;SDS011;6865;52.552;13.434;2022-12-19T08:12:57;20.87;;;10.50;;
13588;SDS011;6865;52.552;13.434;2022-12-19T08:15:24;23.73;;;11.57;;
13588;SDS011;6865;52.552;13.434;2022-12-19T08:17:52;18.60;;;10.60;;
13588;SDS011;6865;52.552;13.434;2022-12-19T08:20:19;17.60;;;10.43;;
13588;SDS011;6865;52.552;13.434;2022-12-19T08:22:45;22.67;;;10.83;;
13588;SDS011;6865;52.552;13.434;2022-12-19T08:25:12;20.93;;;11.53;;
13588;SDS011;6865;52.552;13.434;2022-12-19T08:27:39;18.83;;;10.67;;
13588;SDS011;6865;52.552;13.434;2022-12-19T08:30:08;21.00;;;11.20;;
13588;SDS011;6865;52.552;13.434;2022-12-19T08:32:35;19.17;;;11.03;;
13588;SDS011;6865;52.552;13.434;2022-12-19T08:35:01;20.10;;;10.70;;
13588;SDS011;6865;52.552;13.434;2022-12-19T08:37:28;18.97;;;11.00;;
13588;SDS011;6865;52.552;13.434;2022-12-19T08:39:55;19.67;;;11.00;;
13588;SDS011;6865;52.552;13.434;2022-12-19T08:42:21;20.33;;;11.00;;
13588;SDS011;6865;52.552;13.434;2022-12-19T08:44:48;18.80;;;10.33;;
13588;SDS011;6865;52.552;13.434;2022-12-19T08:47:15;21.53;;;11.57;;
13588;SDS011;6865;52.552;13.434;2022-12-19T08:49:41;22.60;;;10.80;;
13588;SDS011;6865;52.552;13.434;2022-12-19T08:52:08;20.30;;;11.17;;
13588;SDS011;6865;52.552;13.434;2022-12-19T08:54:34;17.47;;;10.10;;
13588;SDS011;6865;52.552;13.434;2022-12-19T08:57:01;20.53;;;10.83;;
13588;SDS011;6865;52.552;13.434;2022-12-19T08:59:28;18.77;;;10.73;;
13588;SDS011;6865;52.552;13.434;2022-12-19T09:02:00;19.10;;;10.90;;
13588;SDS011;6865;52.552;13.434;2022-12-19T09:04:27;21.50;;;11.00;;
13588;SDS011;6865;52.552;13.434;2022-12-19T09:07:14;20.90;;;11.43;;
13588;SDS011;6865;52.552;13.434;2022-12-19T09:09:42;19.77;;;10.03;;
13588;SDS011;6865;52.552;13.434;2022-12-19T09:12:10;22.13;;;10.90;;
13588;SDS011;6865;52.552;13.434;2022-12-19T09:14:37;24.03;;;11.13;;
13588;SDS011;6865;52.552;13.434;2022-12-19T09:17:04;26.03;;;12.90;;
13588;SDS011;6865;52.552;13.434;2022-12-19T09:19:32;22.03;;;12.47;;
13588;SDS011;6865;52.552;13.434;2022-12-19T09:21:58;24.37;;;13.30;;
13588;SDS011;6865;52.552;13.434;2022-12-19T09:24:25;21.90;;;10.97;;
13588;SDS011;6865;52.552;13.434;2022-12-19T09:26:52;21.33;;;10.83;;
13588;SDS011;6865;52.552;13.434;2022-12-19T09:29:18;21.17;;;11.10;;
13588;SDS011;6865;52.552;13.434;2022-12-19T09:31:47;26.83;;;14.57;;
13588;SDS011;6865;52.552;13.434;2022-12-19T09:34:23;19.67;;;10.53;;
13588;SDS011;6865;52.552;13.434;2022-12-19T09:37:04;22.03;;;11.00;;
13588;SDS011;6865;52.552;13.434;2022-12-19T09:39:33;17.63;;;11.17;;
13588;SDS011;6865;52.552;13.434;2022-12-19T09:47:55;19.60;;;10.80;;
13588;SDS011;6865;52.552;13.434;2022-12-19T09:53:41;20.07;;;10.97;;
13588;SDS011;6865;52.552;13.434;2022-12-19T09:56:19;18.70;;;10.10;;
13588;SDS011;6865;52.552;13.434;2022-12-19T09:58:48;18.00;;;10.20;;
13588;SDS011;6865;52.552;13.434;2022-12-19T10:01:22;22.03;;;12.30;;
13588;SDS011;6865;52.552;13.434;2022-12-19T10:04:00;20.80;;;11.20;;
13588;SDS011;6865;52.552;13.434;2022-12-19T10:06:35;19.40;;;11.00;;
13588;SDS011;6865;52.552;13.434;2022-12-19T10:09:22;17.77;;;11.00;;
13588;SDS011;6865;52.552;13.434;2022-12-19T10:12:20;22.23;;;10.53;;
13588;SDS011;6865;52.552;13.434;2022-12-19T10:15:28;23.83;;;12.23;;
13588;SDS011;6865;52.552;13.434;2022-12-19T10:18:41;19.00;;;10.87;;
13588;SDS011;6865;52.552;13.434;2022-12-19T10:21:27;20.33;;;10.77;;
13588;SDS011;6865;52.552;13.434;2022-12-19T10:24:47;21.10;;;10.77;;
13588;SDS011;6865;52.552;13.434;2022-12-19T10:30:40;18.80;;;11.73;;
13588;SDS011;6865;52.552;13.434;2022-12-19T10:33:25;20.97;;;11.17;;
13588;SDS011;6865;52.552;13.434;2022-12-19T10:36:00;21.33;;;11.53;;
13588;SDS011;6865;52.552;13.434;2022-12-19T10:38:31;26.80;;;11.77;;
13588;SDS011;6865;52.552;13.434;2022-12-19T10:41:14;20.53;;;11.47;;
13588;SDS011;6865;52.552;13.434;2022-12-19T10:43:49;20.83;;;11.10;;
13588;SDS011;6865;52.552;13.434;2022-12-19T10:46:30;24.80;;;11.03;;
13588;SDS011;6865;52.552;13.434;2022-12-19T10:49:16;22.90;;;10.83;;
13588;SDS011;6865;52.552;13.434;2022-12-19T10:54:39;24.60;;;11.90;;
13588;SDS011;6865;52.552;13.434;2022-12-19T11:00:00;19.43;;;10.87;;
13588;SDS011;6865;52.552;13.434;2022-12-19T11:02:40;21.40;;;12.10;;
13588;SDS011;6865;52.552;13.434;2022-12-19T11:05:21;24.33;;;11.40;;
13588;SDS011;6865;52.552;13.434;2022-12-19T11:13:49;18.80;;;10.37;;
13588;SDS011;6865;52.552;13.434;2022-12-19T11:16:36;23.53;;;11.77;;
13588;SDS011;6865;52.552;13.434;2022-12-19T11:19:33;21.93;;;11.83;;
13588;SDS011;6865;52.552;13.434;2022-12-19T11:22:23;21.37;;;10.57;;
13588;SDS011;6865;52.552;13.434;2022-12-19T11:25:18;22.17;;;11.97;;
13588;SDS011;6865;52.552;13.434;2022-12-19T11:28:20;19.70;;;11.23;;
13588;SDS011;6865;52.552;13.434;2022-12-19T11:31:21;21.47;;;12.07;;
13588;SDS011;6865;52.552;13.434;2022-12-19T11:34:19;19.40;;;10.77;;
13588;SDS011;6865;52.552;13.434;2022-12-19T11:36:51;21.67;;;11.47;;
13588;SDS011;6865;52.552;13.434;2022-12-19T11:39:36;22.20;;;11.73;;
13588;SDS011;6865;52.552;13.434;2022-12-19T11:42:22;21.13;;;11.07;;
13588;SDS011;6865;52.552;13.434;2022-12-19T11:44:57;19.53;;;10.87;;
13588;SDS011;6865;52.552;13.434;2022-12-19T11:47:44;20.70;;;11.33;;
13588;SDS011;6865;52.552;13.434;2022-12-19T11:50:22;20.80;;;11.17;;
13588;SDS011;6865;52.552;13.434;2022-12-19T11:52:57;19.80;;;11.30;;
13588;SDS011;6865;52.552;13.434;2022-12-19T11:55:45;20.33;;;10.83;;
13588;SDS011;6865;52.552;13.434;2022-12-19T11:58:19;19.77;;;11.67;;
13588;SDS011;6865;52.552;13.434;2022-12-19T12:00:54;21.93;;;12.07;;
13588;SDS011;6865;52.552;13.434;2022-12-19T12:03:51;19.30;;;10.83;;
13588;SDS011;6865;52.552;13.434;2022-12-19T12:06:31;18.17;;;10.30;;
13588;SDS011;6865;52.552;13.434;2022-12-19T12:09:02;26.57;;;12.30;;
13588;SDS011;6865;52.552;13.434;2022-12-19T12:12:04;23.43;;;12.33;;
13588;SDS011;6865;52.552;13.434;2022-12-19T12:21:24;21.03;;;12.53;;
13588;SDS011;6865;52.552;13.434;2022-12-19T12:31:11;18.03;;;11.00;;
13588;SDS011;6865;52.552;13.434;2022-12-19T12:40:27;18.40;;;11.20;;
13588;SDS011;6865;52.552;13.434;2022-12-19T12:43:32;22.43;;;12.83;;
13588;SDS011;6865;52.552;13.434;2022-12-19T12:46:17;22.93;;;12.80;;
13588;SDS011;6865;52.552;13.434;2022-12-19T12:51:26;22.17;;;11.83;;
13588;SDS011;6865;52.552;13.434;2022-12-19T12:53:58;21.43;;;12.17;;
13588;SDS011;6865;52.552;13.434;2022-12-19T12:56:30;22.30;;;12.17;;
13588;SDS011;6865;52.552;13.434;2022-12-19T13:04:03;23.40;;;11.90;;
13588;SDS011;6865;52.552;13.434;2022-12-19T13:17:08;18.37;;;10.77;;
13588;SDS011;6865;52.552;13.434;2022-12-19T13:19:37;22.03;;;11.93;;
13588;SDS011;6865;52.552;13.434;2022-12-19T13:22:18;20.57;;;11.37;;
13588;SDS011;6865;52.552;13.434;2022-12-19T13:25:28;18.00;;;10.80;;
13588;SDS011;6865;52.552;13.434;2022-12-19T13:28:12;18.60;;;11.30;;
13588;SDS011;6865;52.552;13.434;2022-12-19T13:39:58;20.23;;;11.90;;
13588;SDS011;6865;52.552;13.434;2022-12-19T13:42:37;20.77;;;11.60;;
13588;SDS011;6865;52.552;13.434;2022-12-19T13:45:36;19.47;;;12.37;;
13588;SDS011;6865;52.552;13.434;2022-12-19T13:48:10;21.00;;;11.47;;
13588;SDS011;6865;52.552;13.434;2022-12-19T13:50:41;24.00;;;13.33;;
13588;SDS011;6865;52.552;13.434;2022-12-19T13:53:14;21.90;;;11.70;;
13588;SDS011;6865;52.552;13.434;2022-12-19T13:55:47;22.10;;;11.50;;
13588;SDS011;6865;52.552;13.434;2022-12-19T13:58:19;20.43;;;11.17;;
13588;SDS011;6865;52.552;13.434;2022-12-19T14:00:55;22.97;;;12.57;;
13588;SDS011;6865;52.552;13.434;2022-12-19T14:03:29;20.37;;;11.67;;
13588;SDS011;6865;52.552;13.434;2022-12-19T14:06:02;20.90;;;11.97;;
13588;SDS011;6865;52.552;13.434;2022-12-19T14:08:46;21.57;;;13.17;;
13588;SDS011;6865;52.552;13.434;2022-12-19T14:11:35;22.17;;;12.33;;
13588;SDS011;6865;52.552;13.434;2022-12-19T14:14:27;23.80;;;13.57;;
13588;SDS011;6865;52.552;13.434;2022-12-19T14:17:14;23.67;;;12.93;;
13588;SDS011;6865;52.552;13.434;2022-12-19T14:19:44;23.83;;;13.83;;
13588;SDS011;6865;52.552;13.434;2022-12-19T14:22:13;24.10;;;13.30;;
13588;SDS011;6865;52.552;13.434;2022-12-19T14:24:55;23.93;;;13.70;;
13588;SDS011;6865;52.552;13.434;2022-12-19T14:27:48;24.73;;;13.87;;
13588;SDS011;6865;52.552;13.434;2022-12-19T14:30:39;24.50;;;13.67;;
13588;SDS011;6865;52.552;13.434;2022-12-19T14:33:16;26.17;;;14.67;;
13588;SDS011;6865;52.552;13.434;2022-12-19T14:36:05;25.90;;;13.30;;
13588;SDS011;6865;52.552;13.434;2022-12-19T14:38:45;26.30;;;13.17;;
13588;SDS011;6865;52.552;13.434;2022-12-19T14:41:35;27.33;;;14.03;;
13588;SDS011;6865;52.552;13.434;2022-12-19T14:47:37;26.30;;;14.20;;
13588;SDS011;6865;52.552;13.434;2022-12-19T14:50:33;24.77;;;14.07;;
13588;SDS011;6865;52.552;13.434;2022-12-19T14:53:22;23.13;;;13.20;;
13588;SDS011;6865;52.552;13.434;2022-12-19T14:56:10;22.77;;;12.97;;
13588;SDS011;6865;52.552;13.434;2022-12-19T14:59:02;24.50;;;14.10;;
13588;SDS011;6865;52.552;13.434;2022-12-19T15:01:31;23.57;;;13.47;;
13588;SDS011;6865;52.552;13.434;2022-12-19T15:04:07;27.77;;;13.90;;
13588;SDS011;6865;52.552;13.434;2022-12-19T15:07:02;24.17;;;14.23;;
13588;SDS011;6865;52.552;13.434;2022-12-19T15:10:23;21.93;;;12.53;;
13588;SDS011;6865;52.552;13.434;2022-12-19T15:15:58;24.93;;;14.47;;
13588;SDS011;6865;52.552;13.434;2022-12-19T15:21:00;27.80;;;14.60;;
13588;SDS011;6865;52.552;13.434;2022-12-19T15:23:29;24.27;;;14.83;;
13588;SDS011;6865;52.552;13.434;2022-12-19T15:25:59;23.63;;;14.33;;
13588;SDS011;6865;52.552;13.434;2022-12-19T15:28:36;24.43;;;13.50;;
13588;SDS011;6865;52.552;13.434;2022-12-19T15:31:12;24.73;;;14.63;;
13588;SDS011;6865;52.552;13.434;2022-12-19T15:33:55;26.97;;;15.57;;
13588;SDS011;6865;52.552;13.434;2022-12-19T15:36:42;30.38;;;20.08;;
13588;SDS011;6865;52.552;13.434;2022-12-19T15:39:08;26.97;;;15.80;;
13588;SDS011;6865;52.552;13.434;2022-12-19T15:41:35;28.40;;;15.67;;
13588;SDS011;6865;52.552;13.434;2022-12-19T15:44:06;28.70;;;16.03;;
13588;SDS011;6865;52.552;13.434;2022-12-19T15:46:36;24.50;;;14.17;;
13588;SDS011;6865;52.552;13.434;2022-12-19T15:49:18;26.27;;;14.33;;
13588;SDS011;6865;52.552;13.434;2022-12-19T15:51:46;21.73;;;14.43;;
13588;SDS011;6865;52.552;13.434;2022-12-19T15:54:13;29.43;;;14.53;;
13588;SDS011;6865;52.552;13.434;2022-12-19T15:57:00;22.07;;;13.67;;
13588;SDS011;6865;52.552;13.434;2022-12-19T15:59:30;28.87;;;15.40;;
13588;SDS011;6865;52.552;13.434;2022-12-19T16:02:11;25.37;;;15.23;;
13588;SDS011;6865;52.552;13.434;2022-12-19T16:04:44;26.00;;;14.40;;
13588;SDS011;6865;52.552;13.434;2022-12-19T16:07:13;25.73;;;14.80;;
13588;SDS011;6865;52.552;13.434;2022-12-19T16:09:45;26.20;;;15.43;;
13588;SDS011;6865;52.552;13.434;2022-12-19T16:12:13;25.87;;;14.43;;
13588;SDS011;6865;52.552;13.434;2022-12-19T16:14:44;25.43;;;14.20;;
13588;SDS011;6865;52.552;13.434;2022-12-19T16:17:20;26.63;;;15.50;;
13588;SDS011;6865;52.552;13.434;2022-12-19T16:19:48;26.17;;;14.33;;
13588;SDS011;6865;52.552;13.434;2022-12-19T16:22:23;28.53;;;15.20;;
13588;SDS011;6865;52.552;13.434;2022-12-19T16:24:51;26.67;;;15.03;;
13588;SDS011;6865;52.552;13.434;2022-12-19T16:27:22;26.27;;;15.10;;
13588;SDS011;6865;52.552;13.434;2022-12-19T16:29:51;26.50;;;14.50;;
13588;SDS011;6865;52.552;13.434;2022-12-19T16:32:18;28.90;;;15.80;;
13588;SDS011;6865;52.552;13.434;2022-12-19T16:34:50;29.13;;;16.43;;
13588;SDS011;6865;52.552;13.434;2022-12-19T16:37:18;26.30;;;14.87;;
13588;SDS011;6865;52.552;13.434;2022-12-19T16:39:45;27.63;;;15.60;;
13588;SDS011;6865;52.552;13.434;2022-12-19T16:42:15;29.37;;;15.07;;
13588;SDS011;6865;52.552;13.434;2022-12-19T16:44:46;27.20;;;15.13;;
13588;SDS011;6865;52.552;13.434;2022-12-19T16:47:14;24.90;;;14.00;;
13588;SDS011;6865;52.552;13.434;2022-12-19T16:49:42;25.77;;;14.70;;
13588;SDS011;6865;52.552;13.434;2022-12-19T16:52:09;25.77;;;14.27;;